Nissan Maru — JG5485 — position and weather

sailwx.info

Track history (hours):
 
Tides and Currents Weather Stations Pressure Air Temp Water Temp Dewpoint Dewpoint Depression Visibility Wind Speed Wind Dir Waves Ship Positions

Nissan Maru

Last reported at 2015-Nov-07 10:04 UTC. Time now 2016-Dec-06 08:11 UTC.
Position N 34°07' E 134°47'.
Warning: this ship's position is years out of date!

Length 108 m; draft 7.3 m.

Type: Cargo ship. MMSI: 431400593.

Date/timePositionNaut miles runAvg speedWind from/ knotsBaromVisibWave heightAir tempDewpointWater temp
2015-Nov-07 10:04N 34°07' E 134°47'23911.1
2015-Nov-06 12:33N 35°01' E 139°30'1313.2
2015-Nov-06 11:33N 35°08' E 139°43'1211.8
2015-Nov-06 10:33N 35°20' E 139°42'9 9.4
2015-Nov-06 09:34N 35°29' E 139°44'0 0.0
2015-Nov-06 08:32N 35°29' E 139°44'0 0.0
2015-Nov-06 07:32N 35°29' E 139°44'0 0.0
2015-Nov-06 06:32N 35°29' E 139°44'0 0.0
2015-Nov-06 05:32N 35°29' E 139°44'0 0.0
2015-Nov-06 04:32N 35°29' E 139°44'0 0.0
2015-Nov-06 03:32N 35°29' E 139°44'0 0.0
2015-Nov-06 02:32N 35°29' E 139°44'0 0.0
2015-Nov-06 01:32N 35°29' E 139°44'0 0.0
2015-Nov-06 00:32N 35°29' E 139°44'0 0.3
2015-Nov-05 23:34N 35°29' E 139°45'5 5.1
2015-Nov-05 22:31N 35°24' E 139°45'0 0.0
2015-Nov-05 21:31N 35°24' E 139°45'0 0.0
2015-Nov-05 20:33N 35°24' E 139°45'6 6.5
2015-Nov-05 19:33N 35°17' E 139°45'1111.0
2015-Nov-05 18:33N 35°06' E 139°46'  
2015-Nov-02 22:09N 34°08' E 134°45'23710.4
2015-Nov-01 23:25N 34°57' E 139°27'1412.9
2015-Nov-01 22:20N 35°06' E 139°41'912.0
2015-Nov-01 21:33N 35°14' E 139°46'1111.4
2015-Nov-01 20:33N 35°25' E 139°43'4 4.1
2015-Nov-01 19:33N 35°29' E 139°44'0 0.0
2015-Nov-01 18:31N 35°29' E 139°44'0 0.0
2015-Nov-01 17:31N 35°29' E 139°44'0 0.0
2015-Nov-01 16:31N 35°29' E 139°44'0 0.0
2015-Nov-01 15:31N 35°29' E 139°44'0 0.0
2015-Nov-01 14:31N 35°29' E 139°44'0 0.0
2015-Nov-01 13:31N 35°29' E 139°44'0 0.0
2015-Nov-01 12:31N 35°29' E 139°44'0 0.0
2015-Nov-01 11:31N 35°29' E 139°44'0 0.0
2015-Nov-01 10:31N 35°29' E 139°44'0 0.0
2015-Nov-01 09:31N 35°29' E 139°44'0 0.0
2015-Nov-01 08:31N 35°29' E 139°44'0 0.0
2015-Nov-01 07:31N 35°29' E 139°44'0 0.0
2015-Nov-01 06:31N 35°29' E 139°44'0 0.0
2015-Nov-01 05:31N 35°29' E 139°44'0 0.0
2015-Nov-01 04:31N 35°29' E 139°44'0 0.0
2015-Nov-01 03:31N 35°29' E 139°44'0 0.0
2015-Nov-01 02:31N 35°29' E 139°44'0 0.0
2015-Nov-01 01:31N 35°29' E 139°44'0 0.0
2015-Nov-01 00:31N 35°29' E 139°44'0 0.0
2015-Oct-31 23:31N 35°29' E 139°44'0 0.0
2015-Oct-31 22:31N 35°29' E 139°44'0 0.0
2015-Oct-31 21:31N 35°29' E 139°44'0 0.0
2015-Oct-31 20:31N 35°29' E 139°44'0 0.0
2015-Oct-31 19:31N 35°29' E 139°44'0 0.0
2015-Oct-31 18:31N 35°29' E 139°44'0 0.0
2015-Oct-31 17:31N 35°29' E 139°44'0 0.0
2015-Oct-31 16:31N 35°29' E 139°44'0 0.0
2015-Oct-31 15:31N 35°29' E 139°44'0 0.0
2015-Oct-31 14:31N 35°29' E 139°44'0 0.4
2015-Oct-31 13:34N 35°29' E 139°45'9 8.8
2015-Oct-31 12:33N 35°20' E 139°44'1110.5
2015-Oct-31 11:33N 35°10' E 139°47'  
2015-Oct-28 19:16N 35°00' E 139°28'1213.0
2015-Oct-28 18:21N 35°06' E 139°41'1012.1
2015-Oct-28 17:33N 35°15' E 139°46'1111.0
2015-Oct-28 16:33N 35°26' E 139°44'3 3.3
2015-Oct-28 15:31N 35°29' E 139°44'0 0.0
2015-Oct-28 14:31N 35°29' E 139°44'0 0.0
2015-Oct-28 13:31N 35°29' E 139°44'0 0.0
2015-Oct-28 12:31N 35°29' E 139°44'0 0.0
2015-Oct-28 11:31N 35°29' E 139°44'0 0.0
2015-Oct-28 10:31N 35°29' E 139°44'  
Track history (hours):
 
Tides and Currents Weather Stations Pressure Air Temp Water Temp Dewpoint Dewpoint Depression Visibility Wind Speed Wind Dir Waves Ship Positions

Nissan Maru

Last reported at 2015-Nov-07 10:04 UTC. Time now 2016-Dec-06 08:11 UTC.
Position N 34°07' E 134°47'.
Warning: this ship's position is years out of date!

Length 108 m; draft 7.3 m.

Type: Cargo ship. MMSI: 431400593.

Date/timePositionNaut miles runAvg speedWind from/ knotsBaromVisibWave heightAir tempDewpointWater temp
2015-Nov-07 10:04N 34°07' E 134°47'23911.1
2015-Nov-06 12:33N 35°01' E 139°30'1313.2
2015-Nov-06 11:33N 35°08' E 139°43'1211.8
2015-Nov-06 10:33N 35°20' E 139°42'9 9.4
2015-Nov-06 09:34N 35°29' E 139°44'0 0.0
2015-Nov-06 08:32N 35°29' E 139°44'0 0.0
2015-Nov-06 07:32N 35°29' E 139°44'0 0.0
2015-Nov-06 06:32N 35°29' E 139°44'0 0.0
2015-Nov-06 05:32N 35°29' E 139°44'0 0.0
2015-Nov-06 04:32N 35°29' E 139°44'0 0.0
2015-Nov-06 03:32N 35°29' E 139°44'0 0.0
2015-Nov-06 02:32N 35°29' E 139°44'0 0.0
2015-Nov-06 01:32N 35°29' E 139°44'0 0.0
2015-Nov-06 00:32N 35°29' E 139°44'0 0.3
2015-Nov-05 23:34N 35°29' E 139°45'5 5.1
2015-Nov-05 22:31N 35°24' E 139°45'0 0.0
2015-Nov-05 21:31N 35°24' E 139°45'0 0.0
2015-Nov-05 20:33N 35°24' E 139°45'6 6.5
2015-Nov-05 19:33N 35°17' E 139°45'1111.0
2015-Nov-05 18:33N 35°06' E 139°46'  
2015-Nov-02 22:09N 34°08' E 134°45'23710.4
2015-Nov-01 23:25N 34°57' E 139°27'1412.9
2015-Nov-01 22:20N 35°06' E 139°41'912.0
2015-Nov-01 21:33N 35°14' E 139°46'1111.4
2015-Nov-01 20:33N 35°25' E 139°43'4 4.1
2015-Nov-01 19:33N 35°29' E 139°44'0 0.0
2015-Nov-01 18:31N 35°29' E 139°44'0 0.0
2015-Nov-01 17:31N 35°29' E 139°44'0 0.0
2015-Nov-01 16:31N 35°29' E 139°44'0 0.0
2015-Nov-01 15:31N 35°29' E 139°44'0 0.0
2015-Nov-01 14:31N 35°29' E 139°44'0 0.0
2015-Nov-01 13:31N 35°29' E 139°44'0 0.0
2015-Nov-01 12:31N 35°29' E 139°44'0 0.0
2015-Nov-01 11:31N 35°29' E 139°44'0 0.0
2015-Nov-01 10:31N 35°29' E 139°44'0 0.0
2015-Nov-01 09:31N 35°29' E 139°44'0 0.0
2015-Nov-01 08:31N 35°29' E 139°44'0 0.0
2015-Nov-01 07:31N 35°29' E 139°44'0 0.0
2015-Nov-01 06:31N 35°29' E 139°44'0 0.0
2015-Nov-01 05:31N 35°29' E 139°44'0 0.0
2015-Nov-01 04:31N 35°29' E 139°44'0 0.0
2015-Nov-01 03:31N 35°29' E 139°44'0 0.0
2015-Nov-01 02:31N 35°29' E 139°44'0 0.0
2015-Nov-01 01:31N 35°29' E 139°44'0 0.0
2015-Nov-01 00:31N 35°29' E 139°44'0 0.0
2015-Oct-31 23:31N 35°29' E 139°44'0 0.0
2015-Oct-31 22:31N 35°29' E 139°44'0 0.0
2015-Oct-31 21:31N 35°29' E 139°44'0 0.0
2015-Oct-31 20:31N 35°29' E 139°44'0 0.0
2015-Oct-31 19:31N 35°29' E 139°44'0 0.0
2015-Oct-31 18:31N 35°29' E 139°44'0 0.0
2015-Oct-31 17:31N 35°29' E 139°44'0 0.0
2015-Oct-31 16:31N 35°29' E 139°44'0 0.0
2015-Oct-31 15:31N 35°29' E 139°44'0 0.0
2015-Oct-31 14:31N 35°29' E 139°44'0 0.4
2015-Oct-31 13:34N 35°29' E 139°45'9 8.8
2015-Oct-31 12:33N 35°20' E 139°44'1110.5
2015-Oct-31 11:33N 35°10' E 139°47'  
2015-Oct-28 19:16N 35°00' E 139°28'1213.0
2015-Oct-28 18:21N 35°06' E 139°41'1012.1
2015-Oct-28 17:33N 35°15' E 139°46'1111.0
2015-Oct-28 16:33N 35°26' E 139°44'3 3.3
2015-Oct-28 15:31N 35°29' E 139°44'0 0.0
2015-Oct-28 14:31N 35°29' E 139°44'0 0.0
2015-Oct-28 13:31N 35°29' E 139°44'0 0.0
2015-Oct-28 12:31N 35°29' E 139°44'0 0.0
2015-Oct-28 11:31N 35°29' E 139°44'0 0.0
2015-Oct-28 10:31N 35°29' E 139°44'  

Dump ship's entire track history